Terminal Aerodrome Forecast
Issued by NWS Kansas City/Pleasant Hill, MO

Home | Current Version | Previous Version | Text Only | Print | Product List | Glossary On
Versions: 1 2 3 4 5 6 7 8 9 10 11 12 13 14 15 16 17 18 19 20
000
FTUS43 KEAX 300520
TAFMCI
TAF
KMCI 300520Z 3006/3106 34006KT 6SM BR SCT025
     FM300800 03005KT 3SM BR SCT006 OVC012
      TEMPO 3008/3012 2SM BR OVC006
     FM301400 07006KT P6SM BKN015
     FM301800 13007KT P6SM SCT025 BKN035=

USA.gov is the U.S. government's official web portal to all federal, state and local government web resources and services.